Data for 04/18/2010

Time Sea-Level Adjusted Pressure Absolute Pressure Temperature Relative Humidity Dew Point   
(mb) (inHg) (mb) (inHg) (C) (F) (%) (C) (F)
00:05 1017 30.03 847 25.01 6.6 44 71 1.8 35.3
00:10 1017 30.03 847 25.01 6.3 43.4 71 1.5 34.7
00:15 1017 30.03 847 25.01 6.2 43.2 71 1.4 34.5
00:20 1017 30.03 847 25.01 6 42.8 72 1.3 34.4
00:25 1017 30.03 847 25.01 5.9 42.5 71 1 33.8
00:30 1017 30.03 847 25.01 6.2 43.2 69 0.9 33.7
00:35 1017 30.03 847 25.01 6.3 43.3 68 0.9 33.5
00:40 1017 30.03 847 25.01 6 42.8 69 0.8 33.4
00:45 1017 30.03 847 25.01 5.6 42.1 70 0.5 33
00:50 1017 30.03 847 25.01 5.2 41.4 71 0.5 32.9
00:55 1017 30.03 847 25.01 4.9 40.9 72 0.3 32.6
01:00 1017 30.03 847 25.01 5 41 71 0.2 32.4
01:05 1017 30.03 847 25.01 5.3 41.5 70 0.2 32.4
01:10 1017 30.03 847 25.01 5.6 42.1 72 1 33.8
01:15 1018 30.06 847 25.01 5.5 42 72 0.8 33.5
01:20 1018 30.06 847 25.01 5.4 41.7 71 0.6 33.1
01:25 1018 30.06 847 25.01 5.4 41.8 71 0.5 32.9
01:30 1018 30.06 847 25.01 5.2 41.4 72 0.7 33.2
01:35 1018 30.06 847 25.01 4.9 40.8 75 0.8 33.5
01:40 1018 30.06 847 25.01 4.5 40.1 76 0.7 33.3
01:45 1018 30.06 847 25.01 4.4 40 76 0.6 33.2
01:50 1018 30.06 847 25.01 4.6 40.3 76 0.7 33.2
01:55 1018 30.06 847 25.01 4.8 40.7 74 0.5 33
02:00 1018 30.06 847 25.01 4.9 40.9 74 0.6 33.1
02:05 1018 30.06 847 25.01 4.9 40.8 74 0.6 33.1
02:10 1018 30.06 847 25.01 4.7 40.5 74 0.5 32.9
02:15 1018 30.06 847 25.01 4.6 40.3 74 0.4 32.8
02:20 1018 30.06 847 25.01 4.6 40.2 74 0.3 32.5
02:25 1018 30.06 847 25.01 4.8 40.7 73 0.4 32.7
02:30 1018 30.06 847 25.01 4.9 40.7 73 0.4 32.6
02:35 1018 30.06 847 25.01 5 41.1 72 0.3 32.6
02:40 1018 30.06 847 25.01 5 41 71 0.2 32.4
02:45 1018 30.06 847 25.01 5.2 41.3 69 0 32.1
02:50 1018 30.06 847 25.01 5 41 71 0.1 32.2
02:55 1018 30.06 847 25.01 4.6 40.2 71 -0.2 31.7
03:00 1018 30.06 847 25.01 4.4 39.9 72 -0.2 31.7
03:05 1018 30.06 847 25.01 4.2 39.6 73 -0.2 31.6
03:10 1018 30.06 847 25.01 4.3 39.7 72 -0.3 31.4
03:15 1018 30.06 847 25.01 4.3 39.7 71 -0.5 31.2
03:20 1018 30.06 847 25.01 4.1 39.3 73 -0.4 31.4
03:25 1017 30.03 847 25.01 3.9 39 73 -0.6 30.9
03:30 1018 30.06 847 25.01 4.2 39.5 71 -0.6 30.9
03:35 1018 30.06 847 25.01 4.3 39.7 70 -0.6 30.9
03:40 1018 30.06 847 25.01 4.4 39.9 71 -0.5 31.2
03:45 1018 30.06 847 25.01 4.3 39.8 70 -0.6 30.9
03:50 1018 30.06 847 25.01 4.4 39.9 71 -0.4 31.4
03:55 1018 30.06 847 25.01 4.5 40 72 -0.2 31.7
04:00 1018 30.06 847 25.01 4.3 39.7 74 0.1 32.2
04:05 1018 30.06 847 25.01 4.3 39.7 75 0.2 32.4
04:10 1018 30.06 847 25.01 4.4 39.9 74 0.1 32.2
04:15 1018 30.06 847 25.01 4.5 40.2 74 0.2 32.4
04:20 1018 30.06 847 25.01 4.3 39.8 75 0.4 32.6
04:25 1018 30.06 847 25.01 4.1 39.4 77 0.4 32.6
04:30 1018 30.06 847 25.01 3.8 38.9 77 0.1 32.3
04:35 1018 30.06 847 25.01 3.7 38.7 76 -0.1 31.9
04:40 1018 30.06 847 25.01 3.8 38.9 75 -0.1 31.8
04:45 1018 30.06 847 25.01 4 39.3 75 -0 32
04:50 1018 30.06 847 25.01 4.5 40.1 73 0.1 32.3
04:55 1018 30.06 847 25.01 4.4 39.9 73 0 32
05:00 1018 30.06 847 25.01 4.3 39.7 73 -0.1 31.9
05:05 1018 30.06 847 25.01 4.1 39.4 73 -0.2 31.7
05:10 1018 30.06 847 25.01 4.1 39.3 74 -0.2 31.6
05:15 1018 30.06 847 25.01 4 39.3 73 -0.3 31.5
05:20 1018 30.06 847 25.01 4.1 39.4 73 -0.3 31.5
05:25 1018 30.06 847 25.01 4.2 39.6 71 -0.6 31
05:30 1018 30.06 847 25.01 4.4 40 70 -0.5 31.1
05:35 1018 30.06 847 25.01 4.3 39.8 71 -0.5 31
05:40 1018 30.06 847 25.01 4.4 39.9 71 -0.3 31.4
05:45 1018 30.06 847 25.01 4.3 39.8 72 -0.3 31.5
05:50 1018 30.06 847 25.01 4.2 39.6 72 -0.3 31.4
05:55 1018 30.06 847 25.01 4.1 39.4 72 -0.5 31.2
06:00 1018 30.06 847 25.01 4.1 39.4 72 -0.5 31.2
06:05 1018 30.06 847 25.01 4 39.3 72 -0.6 31
06:10 1018 30.06 847 25.01 3.9 39 73 -0.5 31
06:15 1018 30.06 847 25.01 4 39.2 73 -0.4 31.2
06:20 1018 30.06 847 25.01 4.2 39.5 72 -0.5 31.2
06:25 1018 30.06 847 25.01 4.3 39.7 72 -0.3 31.5
06:30 1018 30.06 847 25.01 4.2 39.6 72 -0.4 31.4
06:35 1018 30.06 847 25.01 4 39.3 72 -0.5 31.1
06:40 1018 30.06 847 25.01 4.2 39.5 71 -0.7 30.7
06:45 1018 30.06 847 25.01 4.2 39.6 71 -0.6 30.8
06:50 1018 30.06 847 25.01 4.3 39.7 69 -0.8 30.5
06:55 1018 30.06 848 25.04 4.2 39.5 69 -1 30.3
07:00 1018 30.06 848 25.04 4.4 39.9 68 -0.9 30.3
07:05 1018 30.06 848 25.04 4.2 39.6 69 -1 30.3
07:10 1018 30.06 848 25.04 4.1 39.3 70 -1 30.2
07:15 1019 30.09 848 25.04 4.3 39.8 69 -0.8 30.5
07:20 1019 30.09 848 25.04 4.7 40.5 67 -0.8 30.5
07:25 1019 30.09 848 25.04 4.3 39.7 69 -1 30.2
07:30 1019 30.09 848 25.04 4.4 39.9 68 -0.9 30.4
07:35 1019 30.09 848 25.04 4.4 39.8 68 -0.9 30.3
07:40 1019 30.09 848 25.04 4.6 40.2 67 -0.9 30.3
07:45 1019 30.09 848 25.04 4.6 40.3 67 -0.9 30.4
07:50 1019 30.09 848 25.04 4.5 40.1 68 -0.8 30.5
07:55 1019 30.09 848 25.04 4.5 40.1 68 -0.9 30.4
08:00 1019 30.09 848 25.04 4.9 40.9 67 -0.7 30.7
08:05 1019 30.09 848 25.04 5.2 41.4 66 -0.6 31
08:10 1019 30.09 848 25.04 5.6 42 65 -0.4 31.2
08:15 1019 30.09 848 25.04 5.4 41.7 67 -0.2 31.7
08:20 1019 30.09 848 25.04 5.3 41.6 68 -0.1 31.9
08:25 1019 30.09 848 25.04 5.2 41.4 69 -0.1 31.9
08:30 1019 30.09 848 25.04 5.2 41.4 68 -0.1 31.8
08:35 1019 30.09 848 25.04 5.7 42.3 66 -0.1 31.8
08:40 1019 30.09 848 25.04 6.5 43.7 64 0.1 32.2
08:45 1019 30.09 848 25.04 7.2 45 62 0.4 32.8
08:50 1019 30.09 848 25.04 8 46.3 59 0.6 33.1
08:55 1019 30.09 848 25.04 7.9 46.3 60 0.6 33
09:00 1019 30.09 848 25.04 8.5 47.2 59 1 33.8
09:05 1019 30.09 848 25.04 9.1 48.3 56 0.9 33.6
09:10 1019 30.09 848 25.04 9.3 48.8 55 0.8 33.4
09:15 1019 30.09 848 25.04 9.6 49.3 55 1.2 34.1
09:20 1019 30.09 848 25.04 9.7 49.4 55 1 33.8
09:25 1019 30.09 848 25.04 10.3 50.5 52 0.8 33.5
09:30 1019 30.09 848 25.04 10.8 51.5 51 1.1 33.9
09:35 1019 30.09 848 25.04 11.2 52.1 50 1.2 34.2
09:40 1019 30.09 848 25.04 11 51.7 50 1 33.8
09:45 1019 30.09 848 25.04 11.7 53.1 47 1 33.7
09:50 1019 30.09 848 25.04 11.9 53.4 48 1.3 34.3
09:55 1019 30.09 848 25.04 12 53.5 49 1.7 35.1
10:00 1019 30.09 848 25.04 12 53.6 49 1.6 34.8
10:05 1019 30.09 848 25.04 12.3 54.1 49 2 35.6
10:10 1019 30.09 848 25.04 12.1 53.7 49 1.9 35.3
10:15 1019 30.09 848 25.04 12.2 53.9 51 2.3 36.2
10:20 1019 30.09 848 25.04 11.5 52.7 53 2.3 36.2
10:25 1019 30.09 848 25.04 11.6 52.8 53 2.5 36.4
10:30 1019 30.09 848 25.04 11.9 53.5 51 2.1 35.8
10:35 1019 30.09 848 25.04 12.4 54.2 49 1.9 35.5
10:40 1019 30.09 848 25.04 12.9 55.2 48 2.1 35.8
10:45 1019 30.09 848 25.04 13.2 55.8 46 2 35.6
10:50 1019 30.09 848 25.04 12.8 55 48 2 35.6
10:55 1019 30.09 848 25.04 13.8 56.8 45 2.2 36
11:00 1019 30.09 848 25.04 14 57.1 48 3.1 37.6
11:05 1019 30.09 848 25.04 13.5 56.2 48 2.7 36.8
11:10 1019 30.09 848 25.04 13.7 56.6 46 2.4 36.4
11:15 1019 30.09 848 25.04 14.6 58.3 44 2.6 36.7
11:20 1019 30.09 848 25.04 14.5 58.1 45 2.9 37.2
11:25 1019 30.09 848 25.04 14.1 57.3 48 3.2 37.8
11:30 1019 30.09 848 25.04 13.5 56.3 51 3.6 38.4
11:35 1019 30.09 848 25.04 13.8 56.8 46 2.4 36.3
11:40 1018 30.06 848 25.04 14.4 57.9 48 3.4 38.2
11:45 1018 30.06 848 25.04 13.7 56.7 49 3.3 38
11:50 1018 30.06 848 25.04 14.5 58.2 44 2.4 36.3
11:55 1018 30.06 848 25.04 15.1 59.1 44 2.9 37.3
12:00 1018 30.06 848 25.04 14.9 58.8 44 2.8 37.1
12:05 1018 30.06 848 25.04 15.3 59.5 40 1.9 35.5
12:10 1018 30.06 847 25.01 14.6 58.3 42 2.1 35.7
12:15 1018 30.06 847 25.01 15.9 60.5 41 2.8 37
12:20 1018 30.06 847 25.01 15.7 60.2 40 2.1 35.7
12:25 1018 30.06 847 25.01 16.1 61 38 1.8 35.2
12:30 1018 30.06 847 25.01 15.5 59.9 40 2 35.6
12:35 1018 30.06 847 25.01 15.4 59.7 34 -0.4 31.2
12:40 1018 30.06 847 25.01 16.4 61.4 36 1.2 34.2
12:45 1018 30.06 847 25.01 16.5 61.7 36 1.5 34.6
12:50 1018 30.06 847 25.01 16.4 61.6 36 1.5 34.6
12:55 1018 30.06 847 25.01 16.6 61.8 34 0.7 33.2
13:00 1018 30.06 847 25.01 16.3 61.4 38 2 35.6
13:05 1018 30.06 847 25.01 15.8 60.5 34 0.1 32.3
13:10 1018 30.06 847 25.01 16.5 61.8 34 0.8 33.5
13:15 1018 30.06 847 25.01 16.2 61.2 33 -0.1 31.9
13:20 1018 30.06 847 25.01 16.8 62.2 30 -0.9 30.4
13:25 1018 30.06 847 25.01 17.2 63 33 0.7 33.3
13:30 1018 30.06 847 25.01 17.5 63.5 31 0.2 32.4
13:35 1018 30.06 847 25.01 17.1 62.9 31 -0.1 31.9
13:40 1018 30.06 847 25.01 16.9 62.4 29 -1.2 29.8
13:45 1018 30.06 847 25.01 17.8 64 27 -1.4 29.4
13:50 1018 30.06 847 25.01 17.8 64.1 27 -1.3 29.6
13:55 1018 30.06 847 25.01 18.2 64.7 26 -1.3 29.6
14:00 1018 30.06 847 25.01 18.3 64.9 28 -0.6 30.9
14:05 1018 30.06 847 25.01 18.2 64.8 26 -1.7 29
14:10 1017 30.03 847 25.01 18.9 66 25 -1.6 29.1
14:15 1017 30.03 847 25.01 18.6 65.6 25 -1.6 29.2
14:20 1017 30.03 847 25.01 18.5 65.3 26 -1.2 29.8
14:25 1017 30.03 847 25.01 18.6 65.6 24 -2 28.3
14:30 1017 30.03 847 25.01 19.2 66.5 24 -1.8 28.7
14:35 1017 30.03 847 25.01 18.3 64.9 25 -1.9 28.7
14:40 1017 30.03 846 24.98 18.2 64.7 26 -1.7 29
14:45 1017 30.03 846 24.98 19.1 66.3 24 -2 28.4
14:50 1017 30.03 846 24.98 18.6 65.4 25 -1.9 28.5
14:55 1017 30.03 846 24.98 18.3 64.9 24 -2.5 27.5
15:00 1017 30.03 846 24.98 18.9 66 24 -2.1 28.3
15:05 1017 30.03 846 24.98 19.7 67.5 22 -2.7 27.2
15:10 1017 30.03 846 24.98 19.1 66.4 24 -1.6 29.2
15:15 1017 30.03 846 24.98 19.1 66.4 22 -2.9 26.8
15:20 1017 30.03 846 24.98 19.2 66.6 21 -3.4 25.9
15:25 1017 30.03 846 24.98 19 66.2 23 -2.6 27.2
15:30 1017 30.03 846 24.98 19.1 66.4 23 -2.7 27.2
15:35 1017 30.03 846 24.98 19.1 66.4 22 -3 26.6
15:40 1017 30.03 846 24.98 18.9 66.1 23 -2.6 27.3
15:45 1017 30.03 846 24.98 18.5 65.3 22 -3.2 26.2
15:50 1017 30.03 846 24.98 18.6 65.4 21 -4.1 24.6
15:55 1017 30.03 846 24.98 18.8 65.8 22 -3.5 25.7
16:00 1016 30 846 24.98 18 64.5 23 -3.5 25.6
16:05 1016 30 846 24.98 17.6 63.8 22 -4.4 24.1
16:10 1016 30 845 24.95 18.2 64.8 18 -6.8 19.8
16:15 1016 30 846 24.98 18.8 65.9 19 -5 23
16:20 1016 30 845 24.95 19.2 66.6 18 -5.3 22.5
16:25 1016 30 845 24.95 18.9 66 21 -3.7 25.4
16:30 1016 30 846 24.98 19.4 67 20 -3.9 24.9
16:35 1016 30 846 24.98 19.9 67.9 20 -3.6 25.6
16:40 1016 30 845 24.95 19.8 67.6 20 -3.8 25.1
16:45 1016 30 845 24.95 20.1 68.2 20 -3.7 25.3
16:50 1016 30 845 24.95 19.2 66.6 19 -4.6 23.7
16:55 1016 30 845 24.95 19.6 67.3 17 -6.2 20.8
17:00 1016 30 845 24.95 20 67.9 17 -6 21.3
17:05 1016 30 845 24.95 20.1 68.2 13 -9.1 15.7
17:10 1016 30 845 24.95 20 67.9 13 -9.4 15.2
17:15 1016 30 845 24.95 20.1 68.1 13 -9.6 14.8
17:20 1016 30 845 24.95 19.9 67.8 13 -9.1 15.7
17:25 1016 30 845 24.95 19.5 67 13 -9.1 15.5
17:30 1016 30 845 24.95 19.6 67.2 12 -10.1 13.9
17:35 1016 30 845 24.95 19.3 66.7 12 -10.5 13.1
17:40 1016 30 845 24.95 19.6 67.3 13 -9.5 14.8
17:45 1016 30 845 24.95 19.8 67.7 12 -10.4 13.2
17:50 1016 30 845 24.95 19.7 67.5 13 -9.8 14.4
17:55 1016 30 845 24.95 20 67.9 13 -9.4 15
18:00 1016 30 845 24.95 19.8 67.6 13 -9.4 15.1
18:05 1016 30 845 24.95 19.7 67.4 13 -9.3 15.2
18:10 1016 30 845 24.95 19.7 67.4 13 -9.6 14.7
18:15 1016 30 845 24.95 19.6 67.3 14 -8.2 17.2
18:20 1016 30 845 24.95 19.3 66.8 13 -9.3 15.3
18:25 1016 30 845 24.95 19.3 66.8 14 -8.8 16.1
18:30 1016 30 845 24.95 19.2 66.5 14 -8.6 16.5
18:35 1016 30 845 24.95 19.1 66.4 15 -8.3 17.1
18:40 1016 30 845 24.95 18.5 65.4 15 -8.7 16.4
18:45 1016 30 845 24.95 18.3 65 15 -8.9 16
18:50 1016 30 845 24.95 18.2 64.7 15 -8.6 16.6
18:55 1016 30 845 24.95 18.1 64.6 16 -8.4 16.8
19:00 1016 30 845 24.95 18.2 64.7 17 -7.6 18.4
19:05 1016 30 845 24.95 18 64.4 18 -6.8 19.8
19:10 1016 30 845 24.95 18.1 64.5 18 -6.8 19.8
19:15 1016 30 845 24.95 18 64.4 18 -6.8 19.7
19:20 1016 30 845 24.95 17.8 64.1 17 -7.3 18.8
19:25 1016 30 845 24.95 17.6 63.8 18 -7.1 19.2
19:30 1016 30 845 24.95 17.5 63.5 19 -5.9 21.3
19:35 1016 30 845 24.95 17.5 63.5 20 -5.9 21.4
19:40 1016 30 845 24.95 17.4 63.4 20 -6 21.2
19:45 1016 30 845 24.95 17.2 63 19 -6.2 20.9
19:50 1016 30 845 24.95 17.1 62.7 20 -5.8 21.5
19:55 1016 30 845 24.95 16.8 62.3 21 -5.4 22.2
20:00 1016 30 845 24.95 16.7 62 21 -5.4 22.3
20:05 1016 30 845 24.95 16.4 61.5 22 -5.5 22.1
20:10 1016 30 845 24.95 16.2 61.1 23 -5 22.9
20:15 1016 30 845 24.95 16.1 61.1 23 -5 23.1
20:20 1016 30 845 24.95 16 60.7 24 -4.7 23.5
20:25 1016 30 845 24.95 15.6 60.1 25 -4.4 24
20:30 1016 30 845 24.95 15.2 59.4 27 -3.4 25.8
20:35 1016 30 845 24.95 14.4 58 29 -3.5 25.8
20:40 1016 30 845 24.95 13.6 56.5 30 -3.7 25.3
20:45 1016 30 846 24.98 13 55.4 30 -4 24.9
20:50 1016 30 846 24.98 12.6 54.6 33 -3.4 25.9
20:55 1016 30 846 24.98 11.9 53.4 34 -3.4 25.8
21:00 1017 30.03 846 24.98 11.4 52.5 34 -3.8 25.2
21:05 1017 30.03 846 24.98 11.2 52.1 33 -4.4 24
21:10 1017 30.03 846 24.98 11.2 52.1 33 -4.4 24.1
21:15 1017 30.03 846 24.98 11.1 52 33 -4.6 23.7
21:20 1017 30.03 846 24.98 11 51.9 34 -4.3 24.2
21:25 1017 30.03 846 24.98 11.1 52 32 -4.8 23.3
21:30 1017 30.03 846 24.98 10.9 51.7 36 -3.4 25.8
21:35 1017 30.03 846 24.98 10.6 51.1 33 -5 23.1
21:40 1017 30.03 846 24.98 10.7 51.2 32 -5.5 22.1
21:45 1017 30.03 846 24.98 10.9 51.6 31 -5.5 22
21:50 1017 30.03 846 24.98 10.8 51.4 33 -4.9 23.1
21:55 1017 30.03 846 24.98 10.1 50.2 35 -4.5 23.9
22:00 1017 30.03 846 24.98 9.7 49.4 36 -4.7 23.5
22:05 1017 30.03 846 24.98 9.6 49.2 36 -4.6 23.7
22:10 1017 30.03 846 24.98 9.2 48.6 38 -4.3 24.3
22:15 1017 30.03 846 24.98 9 48.2 38 -4.6 23.8
22:20 1017 30.03 846 24.98 9.1 48.4 37 -4.7 23.5
22:25 1017 30.03 846 24.98 9.2 48.6 37 -4.7 23.6
22:30 1017 30.03 846 24.98 9.2 48.6 37 -4.7 23.6
22:35 1017 30.03 846 24.98 9.1 48.3 37 -4.8 23.4
22:40 1017 30.03 846 24.98 9 48.1 38 -4.7 23.5
22:45 1017 30.03 846 24.98 8.8 47.9 38 -4.7 23.6
22:50 1017 30.03 846 24.98 8.7 47.7 39 -4.6 23.7
22:55 1017 30.03 846 24.98 8.7 47.7 39 -4.6 23.8
23:00 1017 30.03 846 24.98 8.6 47.5 40 -4.3 24.3
23:05 1017 30.03 846 24.98 8.4 47.1 42 -3.9 25
23:10 1017 30.03 846 24.98 8 46.4 42 -4 24.8
23:15 1017 30.03 846 24.98 8 46.5 40 -4.9 23.2
23:20 1017 30.03 846 24.98 8.5 47.2 39 -4.9 23.3
23:25 1017 30.03 846 24.98 8.8 47.8 38 -4.9 23.1
23:30 1017 30.03 846 24.98 9 48.1 37 -4.8 23.4
23:35 1017 30.03 846 24.98 8.9 48 38 -4.5 23.8
23:40 1017 30.03 846 24.98 8.6 47.5 40 -4.3 24.3
23:45 1017 30.03 846 24.98 8.4 47.1 43 -3.6 25.6
23:50 1017 30.03 846 24.98 7.7 45.9 45 -3.5 25.7
23:55 1017 30.03 846 24.98 7.4 45.3 45 -3.9 25.1
24:00 1017 30.03 846 24.98 7.5 45.5 44 -3.9 24.9